sensor_id;sensor_type;location;lat;lon;timestamp;P1;durP1;ratioP1;P2;durP2;ratioP2
53833;SDS011;39735;51.432;5.482;2022-12-11T00:01:20;143.40;;;49.63;;
53833;SDS011;39735;51.432;5.482;2022-12-11T00:03:46;138.20;;;47.97;;
53833;SDS011;39735;51.432;5.482;2022-12-11T00:06:13;162.98;;;52.00;;
53833;SDS011;39735;51.432;5.482;2022-12-11T00:08:39;127.03;;;44.17;;
53833;SDS011;39735;51.432;5.482;2022-12-11T00:11:14;140.25;;;50.17;;
53833;SDS011;39735;51.432;5.482;2022-12-11T00:13:40;130.75;;;48.60;;
53833;SDS011;39735;51.432;5.482;2022-12-11T00:16:05;127.70;;;46.85;;
53833;SDS011;39735;51.432;5.482;2022-12-11T00:18:31;120.97;;;47.30;;
53833;SDS011;39735;51.432;5.482;2022-12-11T00:21:03;131.25;;;48.28;;
53833;SDS011;39735;51.432;5.482;2022-12-11T00:23:29;151.48;;;49.85;;
53833;SDS011;39735;51.432;5.482;2022-12-11T00:25:55;138.82;;;48.17;;
53833;SDS011;39735;51.432;5.482;2022-12-11T00:28:20;121.45;;;46.53;;
53833;SDS011;39735;51.432;5.482;2022-12-11T00:30:46;125.22;;;46.15;;
53833;SDS011;39735;51.432;5.482;2022-12-11T00:33:12;117.03;;;44.95;;
53833;SDS011;39735;51.432;5.482;2022-12-11T00:35:39;135.90;;;44.92;;
53833;SDS011;39735;51.432;5.482;2022-12-11T00:38:06;139.57;;;47.75;;
53833;SDS011;39735;51.432;5.482;2022-12-11T00:40:32;114.68;;;45.45;;
53833;SDS011;39735;51.432;5.482;2022-12-11T00:42:58;126.97;;;43.15;;
53833;SDS011;39735;51.432;5.482;2022-12-11T00:45:24;112.95;;;43.67;;
53833;SDS011;39735;51.432;5.482;2022-12-11T00:47:49;107.07;;;45.63;;
53833;SDS011;39735;51.432;5.482;2022-12-11T00:50:14;121.88;;;44.50;;
53833;SDS011;39735;51.432;5.482;2022-12-11T00:52:40;130.95;;;45.63;;
53833;SDS011;39735;51.432;5.482;2022-12-11T00:55:05;114.05;;;45.97;;
53833;SDS011;39735;51.432;5.482;2022-12-11T00:57:31;103.85;;;41.13;;
53833;SDS011;39735;51.432;5.482;2022-12-11T00:59:56;115.82;;;44.90;;
53833;SDS011;39735;51.432;5.482;2022-12-11T01:02:22;121.72;;;49.85;;
53833;SDS011;39735;51.432;5.482;2022-12-11T01:04:47;113.18;;;43.20;;
53833;SDS011;39735;51.432;5.482;2022-12-11T01:07:12;111.40;;;43.17;;
53833;SDS011;39735;51.432;5.482;2022-12-11T01:09:38;128.88;;;47.88;;
53833;SDS011;39735;51.432;5.482;2022-12-11T01:12:21;145.80;;;50.67;;
53833;SDS011;39735;51.432;5.482;2022-12-11T01:14:47;114.70;;;43.83;;
53833;SDS011;39735;51.432;5.482;2022-12-11T01:17:12;96.93;;;43.10;;
53833;SDS011;39735;51.432;5.482;2022-12-11T01:19:37;104.72;;;43.67;;
53833;SDS011;39735;51.432;5.482;2022-12-11T01:22:03;109.70;;;40.83;;
53833;SDS011;39735;51.432;5.482;2022-12-11T01:24:28;110.63;;;43.35;;
53833;SDS011;39735;51.432;5.482;2022-12-11T01:26:53;100.88;;;41.72;;
53833;SDS011;39735;51.432;5.482;2022-12-11T01:29:19;117.72;;;44.13;;
53833;SDS011;39735;51.432;5.482;2022-12-11T01:31:44;100.78;;;41.58;;
53833;SDS011;39735;51.432;5.482;2022-12-11T01:34:09;135.15;;;42.67;;
53833;SDS011;39735;51.432;5.482;2022-12-11T01:36:35;106.53;;;39.63;;
53833;SDS011;39735;51.432;5.482;2022-12-11T01:39:00;106.15;;;38.15;;
53833;SDS011;39735;51.432;5.482;2022-12-11T01:41:25;100.60;;;40.83;;
53833;SDS011;39735;51.432;5.482;2022-12-11T01:43:55;97.85;;;39.70;;
53833;SDS011;39735;51.432;5.482;2022-12-11T01:46:31;114.45;;;44.10;;
53833;SDS011;39735;51.432;5.482;2022-12-11T01:48:59;95.82;;;40.05;;
53833;SDS011;39735;51.432;5.482;2022-12-11T01:51:28;96.57;;;42.92;;
53833;SDS011;39735;51.432;5.482;2022-12-11T01:54:04;101.32;;;39.97;;
53833;SDS011;39735;51.432;5.482;2022-12-11T01:56:36;92.90;;;41.63;;
53833;SDS011;39735;51.432;5.482;2022-12-11T01:59:02;103.88;;;43.17;;
53833;SDS011;39735;51.432;5.482;2022-12-11T02:01:39;127.72;;;42.65;;
53833;SDS011;39735;51.432;5.482;2022-12-11T02:04:07;112.07;;;46.67;;
53833;SDS011;39735;51.432;5.482;2022-12-11T02:06:34;96.63;;;39.97;;
53833;SDS011;39735;51.432;5.482;2022-12-11T02:09:05;101.55;;;41.22;;
53833;SDS011;39735;51.432;5.482;2022-12-11T02:11:34;113.70;;;44.20;;
53833;SDS011;39735;51.432;5.482;2022-12-11T02:14:07;111.95;;;40.45;;
53833;SDS011;39735;51.432;5.482;2022-12-11T02:16:49;110.10;;;40.58;;
53833;SDS011;39735;51.432;5.482;2022-12-11T02:22:10;81.60;;;37.22;;
53833;SDS011;39735;51.432;5.482;2022-12-11T02:24:46;97.93;;;41.13;;
53833;SDS011;39735;51.432;5.482;2022-12-11T02:27:41;112.18;;;39.78;;
53833;SDS011;39735;51.432;5.482;2022-12-11T02:30:10;90.55;;;36.92;;
53833;SDS011;39735;51.432;5.482;2022-12-11T02:32:57;99.28;;;40.40;;
53833;SDS011;39735;51.432;5.482;2022-12-11T02:35:24;86.57;;;39.22;;
53833;SDS011;39735;51.432;5.482;2022-12-11T02:37:56;103.93;;;40.25;;
53833;SDS011;39735;51.432;5.482;2022-12-11T02:40:25;91.55;;;38.13;;
53833;SDS011;39735;51.432;5.482;2022-12-11T02:42:53;99.82;;;40.63;;
53833;SDS011;39735;51.432;5.482;2022-12-11T02:45:19;90.80;;;37.65;;
53833;SDS011;39735;51.432;5.482;2022-12-11T02:47:46;82.20;;;37.70;;
53833;SDS011;39735;51.432;5.482;2022-12-11T02:50:13;99.72;;;37.08;;
53833;SDS011;39735;51.432;5.482;2022-12-11T02:52:40;91.80;;;37.78;;
53833;SDS011;39735;51.432;5.482;2022-12-11T02:55:07;94.93;;;34.72;;
53833;SDS011;39735;51.432;5.482;2022-12-11T02:57:48;86.00;;;39.28;;
53833;SDS011;39735;51.432;5.482;2022-12-11T03:00:16;83.05;;;37.25;;
53833;SDS011;39735;51.432;5.482;2022-12-11T03:02:42;91.30;;;39.58;;
53833;SDS011;39735;51.432;5.482;2022-12-11T03:05:08;96.03;;;36.03;;
53833;SDS011;39735;51.432;5.482;2022-12-11T03:07:36;82.90;;;38.17;;
53833;SDS011;39735;51.432;5.482;2022-12-11T03:10:03;101.25;;;37.20;;
53833;SDS011;39735;51.432;5.482;2022-12-11T03:12:31;88.57;;;34.58;;
53833;SDS011;39735;51.432;5.482;2022-12-11T03:15:00;88.70;;;37.22;;
53833;SDS011;39735;51.432;5.482;2022-12-11T03:17:32;78.05;;;34.85;;
53833;SDS011;39735;51.432;5.482;2022-12-11T03:20:11;81.60;;;35.03;;
53833;SDS011;39735;51.432;5.482;2022-12-11T03:23:02;74.38;;;32.35;;
53833;SDS011;39735;51.432;5.482;2022-12-11T03:25:55;75.47;;;34.55;;
53833;SDS011;39735;51.432;5.482;2022-12-11T03:28:44;74.60;;;34.05;;
53833;SDS011;39735;51.432;5.482;2022-12-11T03:31:22;83.15;;;35.38;;
53833;SDS011;39735;51.432;5.482;2022-12-11T03:33:50;66.40;;;30.55;;
53833;SDS011;39735;51.432;5.482;2022-12-11T03:36:39;69.57;;;30.40;;
53833;SDS011;39735;51.432;5.482;2022-12-11T03:39:05;68.18;;;31.60;;
53833;SDS011;39735;51.432;5.482;2022-12-11T03:41:32;73.05;;;30.88;;
53833;SDS011;39735;51.432;5.482;2022-12-11T03:43:59;71.50;;;28.73;;
53833;SDS011;39735;51.432;5.482;2022-12-11T03:46:31;78.85;;;31.35;;
53833;SDS011;39735;51.432;5.482;2022-12-11T03:49:11;76.78;;;31.30;;
53833;SDS011;39735;51.432;5.482;2022-12-11T03:51:40;77.90;;;32.40;;
53833;SDS011;39735;51.432;5.482;2022-12-11T03:54:07;68.35;;;30.27;;
53833;SDS011;39735;51.432;5.482;2022-12-11T03:56:33;64.88;;;31.02;;
53833;SDS011;39735;51.432;5.482;2022-12-11T03:58:59;73.07;;;28.85;;
53833;SDS011;39735;51.432;5.482;2022-12-11T04:01:25;51.53;;;27.30;;
53833;SDS011;39735;51.432;5.482;2022-12-11T04:03:50;67.85;;;28.48;;
53833;SDS011;39735;51.432;5.482;2022-12-11T04:06:16;56.72;;;28.33;;
53833;SDS011;39735;51.432;5.482;2022-12-11T04:08:41;55.80;;;28.40;;
53833;SDS011;39735;51.432;5.482;2022-12-11T04:11:06;53.88;;;29.75;;
53833;SDS011;39735;51.432;5.482;2022-12-11T04:13:50;51.83;;;27.08;;
53833;SDS011;39735;51.432;5.482;2022-12-11T04:16:36;58.88;;;26.35;;
53833;SDS011;39735;51.432;5.482;2022-12-11T04:19:01;48.08;;;26.92;;
53833;SDS011;39735;51.432;5.482;2022-12-11T04:21:45;48.03;;;25.58;;
53833;SDS011;39735;51.432;5.482;2022-12-11T04:24:29;50.20;;;23.23;;
53833;SDS011;39735;51.432;5.482;2022-12-11T04:26:55;46.88;;;25.38;;
53833;SDS011;39735;51.432;5.482;2022-12-11T04:29:20;45.13;;;23.33;;
53833;SDS011;39735;51.432;5.482;2022-12-11T04:31:45;51.92;;;22.35;;
53833;SDS011;39735;51.432;5.482;2022-12-11T04:34:11;56.22;;;25.27;;
53833;SDS011;39735;51.432;5.482;2022-12-11T04:36:36;45.22;;;23.25;;
53833;SDS011;39735;51.432;5.482;2022-12-11T04:39:03;43.05;;;23.23;;
53833;SDS011;39735;51.432;5.482;2022-12-11T04:41:29;48.30;;;22.35;;
53833;SDS011;39735;51.432;5.482;2022-12-11T04:43:54;34.35;;;21.15;;
53833;SDS011;39735;51.432;5.482;2022-12-11T04:46:21;43.47;;;23.52;;
53833;SDS011;39735;51.432;5.482;2022-12-11T04:48:48;41.22;;;20.13;;
53833;SDS011;39735;51.432;5.482;2022-12-11T04:51:14;37.90;;;23.25;;
53833;SDS011;39735;51.432;5.482;2022-12-11T04:53:40;40.83;;;19.98;;
53833;SDS011;39735;51.432;5.482;2022-12-11T04:56:06;42.78;;;23.27;;
53833;SDS011;39735;51.432;5.482;2022-12-11T04:58:32;36.72;;;21.27;;
53833;SDS011;39735;51.432;5.482;2022-12-11T05:00:59;40.22;;;20.02;;
53833;SDS011;39735;51.432;5.482;2022-12-11T05:03:25;35.85;;;20.55;;
53833;SDS011;39735;51.432;5.482;2022-12-11T05:05:53;36.28;;;19.88;;
53833;SDS011;39735;51.432;5.482;2022-12-11T05:08:19;37.20;;;21.02;;
53833;SDS011;39735;51.432;5.482;2022-12-11T05:10:53;44.88;;;22.90;;
53833;SDS011;39735;51.432;5.482;2022-12-11T05:13:20;37.28;;;20.92;;
53833;SDS011;39735;51.432;5.482;2022-12-11T05:15:45;35.50;;;20.60;;
53833;SDS011;39735;51.432;5.482;2022-12-11T05:18:11;37.20;;;22.70;;
53833;SDS011;39735;51.432;5.482;2022-12-11T05:20:36;33.13;;;20.23;;
53833;SDS011;39735;51.432;5.482;2022-12-11T05:23:01;36.03;;;20.13;;
53833;SDS011;39735;51.432;5.482;2022-12-11T05:25:27;40.20;;;20.42;;
53833;SDS011;39735;51.432;5.482;2022-12-11T05:27:52;33.13;;;19.05;;
53833;SDS011;39735;51.432;5.482;2022-12-11T05:30:17;33.72;;;20.48;;
53833;SDS011;39735;51.432;5.482;2022-12-11T05:32:43;38.17;;;21.80;;
53833;SDS011;39735;51.432;5.482;2022-12-11T05:35:08;33.00;;;19.52;;
53833;SDS011;39735;51.432;5.482;2022-12-11T05:37:34;41.95;;;21.02;;
53833;SDS011;39735;51.432;5.482;2022-12-11T05:39:59;53.78;;;21.02;;
53833;SDS011;39735;51.432;5.482;2022-12-11T05:42:24;39.35;;;21.63;;
53833;SDS011;39735;51.432;5.482;2022-12-11T05:44:50;30.13;;;19.60;;
53833;SDS011;39735;51.432;5.482;2022-12-11T05:47:15;39.47;;;22.23;;
53833;SDS011;39735;51.432;5.482;2022-12-11T05:49:44;36.17;;;22.95;;
53833;SDS011;39735;51.432;5.482;2022-12-11T05:52:09;34.67;;;20.83;;
53833;SDS011;39735;51.432;5.482;2022-12-11T05:54:34;30.73;;;20.17;;
53833;SDS011;39735;51.432;5.482;2022-12-11T05:57:00;35.35;;;22.48;;
53833;SDS011;39735;51.432;5.482;2022-12-11T05:59:25;36.03;;;17.75;;
53833;SDS011;39735;51.432;5.482;2022-12-11T06:01:50;34.45;;;20.23;;
53833;SDS011;39735;51.432;5.482;2022-12-11T06:04:16;38.40;;;21.00;;
53833;SDS011;39735;51.432;5.482;2022-12-11T06:06:41;39.22;;;20.70;;
53833;SDS011;39735;51.432;5.482;2022-12-11T06:09:10;35.30;;;19.52;;
53833;SDS011;39735;51.432;5.482;2022-12-11T06:11:37;43.72;;;20.90;;
53833;SDS011;39735;51.432;5.482;2022-12-11T06:14:03;34.28;;;21.25;;
53833;SDS011;39735;51.432;5.482;2022-12-11T06:16:28;38.22;;;21.25;;
53833;SDS011;39735;51.432;5.482;2022-12-11T06:18:54;38.72;;;20.35;;
53833;SDS011;39735;51.432;5.482;2022-12-11T06:21:20;36.33;;;18.25;;
53833;SDS011;39735;51.432;5.482;2022-12-11T06:23:53;35.97;;;22.40;;
53833;SDS011;39735;51.432;5.482;2022-12-11T06:26:20;42.25;;;21.23;;
53833;SDS011;39735;51.432;5.482;2022-12-11T06:28:46;35.70;;;19.63;;
53833;SDS011;39735;51.432;5.482;2022-12-11T06:31:11;34.92;;;19.85;;
53833;SDS011;39735;51.432;5.482;2022-12-11T06:33:37;43.35;;;22.63;;
53833;SDS011;39735;51.432;5.482;2022-12-11T06:36:07;38.65;;;21.85;;
53833;SDS011;39735;51.432;5.482;2022-12-11T06:38:34;38.92;;;22.27;;
53833;SDS011;39735;51.432;5.482;2022-12-11T06:41:00;36.75;;;20.38;;
53833;SDS011;39735;51.432;5.482;2022-12-11T06:43:28;38.22;;;20.63;;
53833;SDS011;39735;51.432;5.482;2022-12-11T06:45:54;35.22;;;21.73;;
53833;SDS011;39735;51.432;5.482;2022-12-11T06:48:19;40.70;;;22.83;;
53833;SDS011;39735;51.432;5.482;2022-12-11T06:50:45;39.28;;;22.20;;
53833;SDS011;39735;51.432;5.482;2022-12-11T06:53:11;43.47;;;23.90;;
53833;SDS011;39735;51.432;5.482;2022-12-11T06:55:40;49.88;;;23.65;;
53833;SDS011;39735;51.432;5.482;2022-12-11T06:58:06;50.38;;;24.20;;
53833;SDS011;39735;51.432;5.482;2022-12-11T07:00:33;36.17;;;22.55;;
53833;SDS011;39735;51.432;5.482;2022-12-11T07:02:59;37.63;;;22.67;;
53833;SDS011;39735;51.432;5.482;2022-12-11T07:05:24;46.03;;;23.35;;
53833;SDS011;39735;51.432;5.482;2022-12-11T07:07:51;40.55;;;23.10;;
53833;SDS011;39735;51.432;5.482;2022-12-11T07:10:17;39.05;;;22.65;;
53833;SDS011;39735;51.432;5.482;2022-12-11T07:12:43;44.15;;;23.27;;
53833;SDS011;39735;51.432;5.482;2022-12-11T07:15:08;40.22;;;21.75;;
53833;SDS011;39735;51.432;5.482;2022-12-11T07:17:34;51.80;;;24.00;;
53833;SDS011;39735;51.432;5.482;2022-12-11T07:19:59;48.17;;;23.10;;
53833;SDS011;39735;51.432;5.482;2022-12-11T07:22:25;52.63;;;26.60;;
53833;SDS011;39735;51.432;5.482;2022-12-11T07:24:50;54.80;;;27.17;;
53833;SDS011;39735;51.432;5.482;2022-12-11T07:27:15;46.38;;;24.60;;
53833;SDS011;39735;51.432;5.482;2022-12-11T07:29:41;49.00;;;25.10;;
53833;SDS011;39735;51.432;5.482;2022-12-11T07:32:06;52.38;;;24.27;;
53833;SDS011;39735;51.432;5.482;2022-12-11T07:34:31;63.55;;;26.55;;
53833;SDS011;39735;51.432;5.482;2022-12-11T07:36:57;55.75;;;23.65;;
53833;SDS011;39735;51.432;5.482;2022-12-11T07:39:22;48.33;;;23.95;;
53833;SDS011;39735;51.432;5.482;2022-12-11T07:41:48;51.78;;;28.05;;
53833;SDS011;39735;51.432;5.482;2022-12-11T07:44:14;58.83;;;25.52;;
53833;SDS011;39735;51.432;5.482;2022-12-11T07:46:39;53.80;;;25.63;;
53833;SDS011;39735;51.432;5.482;2022-12-11T07:49:05;54.28;;;27.17;;
53833;SDS011;39735;51.432;5.482;2022-12-11T07:51:32;55.53;;;26.20;;
53833;SDS011;39735;51.432;5.482;2022-12-11T07:54:02;54.08;;;24.25;;
53833;SDS011;39735;51.432;5.482;2022-12-11T07:56:29;56.13;;;25.25;;
53833;SDS011;39735;51.432;5.482;2022-12-11T07:58:57;51.53;;;26.40;;
53833;SDS011;39735;51.432;5.482;2022-12-11T08:01:24;52.28;;;27.38;;
53833;SDS011;39735;51.432;5.482;2022-12-11T08:03:50;56.40;;;27.38;;
53833;SDS011;39735;51.432;5.482;2022-12-11T08:06:16;47.05;;;26.27;;
53833;SDS011;39735;51.432;5.482;2022-12-11T08:08:42;46.28;;;23.35;;
53833;SDS011;39735;51.432;5.482;2022-12-11T08:11:09;52.83;;;25.83;;
53833;SDS011;39735;51.432;5.482;2022-12-11T08:13:36;50.45;;;26.63;;
53833;SDS011;39735;51.432;5.482;2022-12-11T08:16:05;42.17;;;23.17;;
53833;SDS011;39735;51.432;5.482;2022-12-11T08:18:32;60.83;;;25.70;;
53833;SDS011;39735;51.432;5.482;2022-12-11T08:20:58;41.85;;;23.75;;
53833;SDS011;39735;51.432;5.482;2022-12-11T08:23:23;43.53;;;23.23;;
53833;SDS011;39735;51.432;5.482;2022-12-11T08:25:49;65.70;;;24.95;;
53833;SDS011;39735;51.432;5.482;2022-12-11T08:28:14;45.75;;;23.92;;
53833;SDS011;39735;51.432;5.482;2022-12-11T08:30:39;45.28;;;22.65;;
53833;SDS011;39735;51.432;5.482;2022-12-11T08:33:05;50.47;;;26.10;;
53833;SDS011;39735;51.432;5.482;2022-12-11T08:35:31;41.45;;;22.55;;
53833;SDS011;39735;51.432;5.482;2022-12-11T08:37:56;46.75;;;23.73;;
53833;SDS011;39735;51.432;5.482;2022-12-11T08:40:22;52.22;;;24.80;;
53833;SDS011;39735;51.432;5.482;2022-12-11T08:42:47;52.88;;;23.92;;
53833;SDS011;39735;51.432;5.482;2022-12-11T08:45:13;56.25;;;27.10;;
53833;SDS011;39735;51.432;5.482;2022-12-11T08:47:38;54.33;;;27.25;;
53833;SDS011;39735;51.432;5.482;2022-12-11T08:50:03;48.35;;;23.55;;
53833;SDS011;39735;51.432;5.482;2022-12-11T08:52:29;62.72;;;25.38;;
53833;SDS011;39735;51.432;5.482;2022-12-11T08:54:55;47.13;;;22.98;;
53833;SDS011;39735;51.432;5.482;2022-12-11T08:57:22;50.50;;;24.42;;
53833;SDS011;39735;51.432;5.482;2022-12-11T08:59:47;46.70;;;23.75;;
53833;SDS011;39735;51.432;5.482;2022-12-11T09:02:13;42.13;;;22.08;;
53833;SDS011;39735;51.432;5.482;2022-12-11T09:04:38;52.55;;;24.38;;
53833;SDS011;39735;51.432;5.482;2022-12-11T09:07:04;42.45;;;21.13;;
53833;SDS011;39735;51.432;5.482;2022-12-11T09:09:29;52.58;;;21.92;;
53833;SDS011;39735;51.432;5.482;2022-12-11T09:11:54;57.08;;;26.33;;
53833;SDS011;39735;51.432;5.482;2022-12-11T09:14:20;47.95;;;26.70;;
53833;SDS011;39735;51.432;5.482;2022-12-11T09:16:46;44.42;;;22.90;;
53833;SDS011;39735;51.432;5.482;2022-12-11T09:19:12;62.35;;;23.50;;
53833;SDS011;39735;51.432;5.482;2022-12-11T09:21:38;49.47;;;24.25;;
53833;SDS011;39735;51.432;5.482;2022-12-11T09:24:04;47.38;;;24.17;;
53833;SDS011;39735;51.432;5.482;2022-12-11T09:26:29;40.92;;;24.17;;
53833;SDS011;39735;51.432;5.482;2022-12-11T09:28:55;41.75;;;22.70;;
53833;SDS011;39735;51.432;5.482;2022-12-11T09:31:25;52.20;;;22.55;;
53833;SDS011;39735;51.432;5.482;2022-12-11T09:33:55;56.13;;;23.77;;
53833;SDS011;39735;51.432;5.482;2022-12-11T09:36:22;48.30;;;25.95;;
53833;SDS011;39735;51.432;5.482;2022-12-11T09:38:48;63.40;;;24.85;;
53833;SDS011;39735;51.432;5.482;2022-12-11T09:46:13;50.72;;;25.52;;
53833;SDS011;39735;51.432;5.482;2022-12-11T09:48:43;49.78;;;23.13;;
53833;SDS011;39735;51.432;5.482;2022-12-11T09:51:18;53.75;;;23.92;;
53833;SDS011;39735;51.432;5.482;2022-12-11T09:53:46;48.60;;;24.00;;
53833;SDS011;39735;51.432;5.482;2022-12-11T09:56:21;44.28;;;22.73;;
53833;SDS011;39735;51.432;5.482;2022-12-11T10:04:56;55.13;;;23.25;;
53833;SDS011;39735;51.432;5.482;2022-12-11T10:13:00;55.90;;;26.00;;
53833;SDS011;39735;51.432;5.482;2022-12-11T10:18:19;45.95;;;23.65;;
53833;SDS011;39735;51.432;5.482;2022-12-11T10:20:48;43.15;;;24.05;;
53833;SDS011;39735;51.432;5.482;2022-12-11T10:23:26;38.97;;;22.70;;
53833;SDS011;39735;51.432;5.482;2022-12-11T10:26:00;46.40;;;23.63;;
53833;SDS011;39735;51.432;5.482;2022-12-11T10:28:28;45.25;;;20.10;;
53833;SDS011;39735;51.432;5.482;2022-12-11T10:31:03;46.90;;;22.38;;
53833;SDS011;39735;51.432;5.482;2022-12-11T10:36:34;48.97;;;21.52;;
53833;SDS011;39735;51.432;5.482;2022-12-11T10:39:01;42.40;;;21.38;;
53833;SDS011;39735;51.432;5.482;2022-12-11T10:41:33;55.05;;;24.23;;
53833;SDS011;39735;51.432;5.482;2022-12-11T10:44:00;50.97;;;22.85;;
53833;SDS011;39735;51.432;5.482;2022-12-11T10:46:26;38.38;;;20.50;;
53833;SDS011;39735;51.432;5.482;2022-12-11T10:48:54;39.22;;;22.60;;
53833;SDS011;39735;51.432;5.482;2022-12-11T10:51:22;63.63;;;21.90;;
53833;SDS011;39735;51.432;5.482;2022-12-11T10:53:54;36.05;;;19.75;;
53833;SDS011;39735;51.432;5.482;2022-12-11T10:56:26;42.65;;;21.17;;
53833;SDS011;39735;51.432;5.482;2022-12-11T10:58:52;41.85;;;20.02;;
53833;SDS011;39735;51.432;5.482;2022-12-11T11:01:20;75.05;;;25.20;;
53833;SDS011;39735;51.432;5.482;2022-12-11T11:03:51;52.33;;;24.33;;
53833;SDS011;39735;51.432;5.482;2022-12-11T11:06:19;44.08;;;22.63;;
53833;SDS011;39735;51.432;5.482;2022-12-11T11:08:47;42.22;;;21.95;;
53833;SDS011;39735;51.432;5.482;2022-12-11T11:11:31;59.25;;;23.52;;
53833;SDS011;39735;51.432;5.482;2022-12-11T11:16:36;49.47;;;24.30;;
53833;SDS011;39735;51.432;5.482;2022-12-11T11:19:03;45.17;;;22.02;;
53833;SDS011;39735;51.432;5.482;2022-12-11T11:21:29;44.97;;;22.00;;
53833;SDS011;39735;51.432;5.482;2022-12-11T11:23:55;51.60;;;21.63;;
53833;SDS011;39735;51.432;5.482;2022-12-11T11:26:21;49.00;;;26.77;;
53833;SDS011;39735;51.432;5.482;2022-12-11T11:28:48;59.80;;;27.73;;
53833;SDS011;39735;51.432;5.482;2022-12-11T11:31:16;47.92;;;24.85;;
53833;SDS011;39735;51.432;5.482;2022-12-11T11:33:52;67.72;;;30.17;;
53833;SDS011;39735;51.432;5.482;2022-12-11T11:36:22;48.45;;;24.05;;
53833;SDS011;39735;51.432;5.482;2022-12-11T11:39:02;42.85;;;22.73;;
53833;SDS011;39735;51.432;5.482;2022-12-11T11:41:34;48.72;;;23.02;;
53833;SDS011;39735;51.432;5.482;2022-12-11T11:44:05;42.13;;;20.73;;
53833;SDS011;39735;51.432;5.482;2022-12-11T11:46:37;40.38;;;22.25;;
53833;SDS011;39735;51.432;5.482;2022-12-11T11:49:59;43.95;;;21.95;;
53833;SDS011;39735;51.432;5.482;2022-12-11T11:52:11;51.33;;;24.08;;
53833;SDS011;39735;51.432;5.482;2022-12-11T11:54:45;44.97;;;22.23;;
53833;SDS011;39735;51.432;5.482;2022-12-11T11:57:28;44.78;;;22.35;;
53833;SDS011;39735;51.432;5.482;2022-12-11T12:00:32;51.22;;;25.33;;
53833;SDS011;39735;51.432;5.482;2022-12-11T12:02:56;44.25;;;23.13;;
53833;SDS011;39735;51.432;5.482;2022-12-11T12:05:26;55.60;;;21.48;;
53833;SDS011;39735;51.432;5.482;2022-12-11T12:11:00;42.70;;;18.42;;
53833;SDS011;39735;51.432;5.482;2022-12-11T12:16:39;43.90;;;23.58;;
53833;SDS011;39735;51.432;5.482;2022-12-11T12:19:16;38.35;;;19.17;;
53833;SDS011;39735;51.432;5.482;2022-12-11T12:21:45;36.87;;;19.20;;
53833;SDS011;39735;51.432;5.482;2022-12-11T12:24:25;42.53;;;22.50;;
53833;SDS011;39735;51.432;5.482;2022-12-11T12:27:18;38.05;;;18.73;;
53833;SDS011;39735;51.432;5.482;2022-12-11T12:35:34;29.33;;;16.55;;
53833;SDS011;39735;51.432;5.482;2022-12-11T12:38:09;41.40;;;20.75;;
53833;SDS011;39735;51.432;5.482;2022-12-11T12:40:47;31.42;;;15.57;;
53833;SDS011;39735;51.432;5.482;2022-12-11T12:43:46;33.38;;;17.02;;
53833;SDS011;39735;51.432;5.482;2022-12-11T12:49:14;25.77;;;15.20;;
53833;SDS011;39735;51.432;5.482;2022-12-11T12:51:43;30.35;;;15.35;;
53833;SDS011;39735;51.432;5.482;2022-12-11T12:54:11;32.25;;;15.40;;
53833;SDS011;39735;51.432;5.482;2022-12-11T12:56:40;33.25;;;19.45;;
53833;SDS011;39735;51.432;5.482;2022-12-11T12:59:17;37.00;;;17.45;;
53833;SDS011;39735;51.432;5.482;2022-12-11T13:01:48;32.72;;;17.60;;
53833;SDS011;39735;51.432;5.482;2022-12-11T13:04:27;83.43;;;33.78;;
53833;SDS011;39735;51.432;5.482;2022-12-11T13:06:58;62.85;;;26.23;;
53833;SDS011;39735;51.432;5.482;2022-12-11T13:09:35;79.30;;;32.03;;
53833;SDS011;39735;51.432;5.482;2022-12-11T13:12:01;45.20;;;22.75;;
53833;SDS011;39735;51.432;5.482;2022-12-11T13:14:37;45.65;;;24.02;;
53833;SDS011;39735;51.432;5.482;2022-12-11T13:17:04;45.58;;;19.27;;
53833;SDS011;39735;51.432;5.482;2022-12-11T13:19:33;39.53;;;20.73;;
53833;SDS011;39735;51.432;5.482;2022-12-11T13:24:56;43.40;;;20.75;;
53833;SDS011;39735;51.432;5.482;2022-12-11T13:27:35;46.33;;;21.10;;
53833;SDS011;39735;51.432;5.482;2022-12-11T13:30:06;36.03;;;19.05;;
53833;SDS011;39735;51.432;5.482;2022-12-11T13:32:35;42.30;;;18.90;;
53833;SDS011;39735;51.432;5.482;2022-12-11T13:35:03;30.25;;;18.55;;
53833;SDS011;39735;51.432;5.482;2022-12-11T13:37:33;33.67;;;17.40;;
53833;SDS011;39735;51.432;5.482;2022-12-11T13:40:04;33.08;;;18.25;;
53833;SDS011;39735;51.432;5.482;2022-12-11T13:42:33;33.45;;;18.10;;
53833;SDS011;39735;51.432;5.482;2022-12-11T13:45:00;37.85;;;17.80;;
53833;SDS011;39735;51.432;5.482;2022-12-11T13:47:26;40.25;;;18.52;;
53833;SDS011;39735;51.432;5.482;2022-12-11T13:49:53;30.33;;;17.45;;
53833;SDS011;39735;51.432;5.482;2022-12-11T13:52:24;33.22;;;17.33;;
53833;SDS011;39735;51.432;5.482;2022-12-11T13:54:53;31.48;;;16.30;;
53833;SDS011;39735;51.432;5.482;2022-12-11T13:57:21;39.95;;;18.55;;
53833;SDS011;39735;51.432;5.482;2022-12-11T13:59:48;32.47;;;17.90;;
53833;SDS011;39735;51.432;5.482;2022-12-11T14:05:02;39.25;;;19.90;;
53833;SDS011;39735;51.432;5.482;2022-12-11T14:07:37;32.00;;;17.40;;
53833;SDS011;39735;51.432;5.482;2022-12-11T14:10:06;27.38;;;17.10;;
53833;SDS011;39735;51.432;5.482;2022-12-11T14:12:37;38.90;;;18.73;;
53833;SDS011;39735;51.432;5.482;2022-12-11T14:15:10;28.55;;;17.27;;
53833;SDS011;39735;51.432;5.482;2022-12-11T14:17:38;26.33;;;18.00;;
53833;SDS011;39735;51.432;5.482;2022-12-11T14:20:06;26.15;;;15.68;;
53833;SDS011;39735;51.432;5.482;2022-12-11T14:22:42;26.95;;;14.38;;
53833;SDS011;39735;51.432;5.482;2022-12-11T14:25:24;35.92;;;21.05;;
53833;SDS011;39735;51.432;5.482;2022-12-11T14:27:54;25.98;;;15.60;;
53833;SDS011;39735;51.432;5.482;2022-12-11T14:30:30;47.92;;;14.90;;
53833;SDS011;39735;51.432;5.482;2022-12-11T14:32:57;28.15;;;15.38;;
53833;SDS011;39735;51.432;5.482;2022-12-11T14:35:31;28.80;;;17.27;;
53833;SDS011;39735;51.432;5.482;2022-12-11T14:37:59;27.38;;;15.55;;
53833;SDS011;39735;51.432;5.482;2022-12-11T14:40:30;28.60;;;14.30;;
53833;SDS011;39735;51.432;5.482;2022-12-11T14:43:01;27.38;;;15.77;;
53833;SDS011;39735;51.432;5.482;2022-12-11T14:45:35;23.13;;;14.43;;
53833;SDS011;39735;51.432;5.482;2022-12-11T14:48:06;35.55;;;18.98;;
53833;SDS011;39735;51.432;5.482;2022-12-11T14:50:43;28.95;;;17.20;;
53833;SDS011;39735;51.432;5.482;2022-12-11T14:53:13;26.45;;;16.73;;
53833;SDS011;39735;51.432;5.482;2022-12-11T14:56:00;31.00;;;14.63;;
53833;SDS011;39735;51.432;5.482;2022-12-11T14:58:27;27.70;;;16.60;;
53833;SDS011;39735;51.432;5.482;2022-12-11T15:01:04;35.40;;;16.70;;
53833;SDS011;39735;51.432;5.482;2022-12-11T15:03:33;27.52;;;15.77;;
53833;SDS011;39735;51.432;5.482;2022-12-11T15:06:03;31.27;;;17.95;;
53833;SDS011;39735;51.432;5.482;2022-12-11T15:09:13;33.75;;;15.90;;
53833;SDS011;39735;51.432;5.482;2022-12-11T15:11:41;28.63;;;15.27;;
53833;SDS011;39735;51.432;5.482;2022-12-11T15:14:08;25.40;;;15.48;;
53833;SDS011;39735;51.432;5.482;2022-12-11T15:16:36;30.95;;;17.20;;
53833;SDS011;39735;51.432;5.482;2022-12-11T15:19:02;30.42;;;15.57;;